Time;durP1;ratioP1;P1;durP2;ratioP2;P2;SDS_P1;SDS_P2;PMS_P1;PMS_P2;Temp;Humidity;BMP_temperature;BMP_pressure;BME280_temperature;BME280_humidity;BME280_pressure;Samples;Min_cycle;Max_cycle;Signal;HPM_P1;HPM_P2
2022/09/26 04:13:02;;;;;;;80.07;44.33;;;;;;;11.24;100.00;99531.69;5572336;31;205602;-91
2022/09/26 04:16:06;;;;;;;80.90;45.67;;;;;;;11.21;100.00;99526.56;5552382;32;34084;-91
2022/09/26 04:19:10;;;;;;;68.90;39.80;;;;;;;11.19;100.00;99520.50;5544318;32;34719;-91
2022/09/26 04:22:14;;;;;;;60.33;37.90;;;;;;;11.25;100.00;99527.19;5544267;32;34036;-89
2022/09/26 04:25:20;;;;;;;53.97;34.75;;;;;;;11.26;100.00;99529.75;5544770;32;34248;-91
2022/09/26 04:28:23;;;;;;;51.05;32.65;;;;;;;11.31;100.00;99518.81;5544972;32;33411;-89
2022/09/26 04:31:28;;;;;;;50.47;31.92;;;;;;;11.33;100.00;99520.44;5543529;32;32124;-89
2022/09/26 04:34:31;;;;;;;40.65;29.58;;;;;;;11.36;100.00;99515.88;5545248;32;34920;-89
2022/09/26 04:37:35;;;;;;;39.90;28.90;;;;;;;11.45;100.00;99507.28;5550280;32;34510;-89
2022/09/26 04:40:38;;;;;;;42.80;28.85;;;;;;;11.37;100.00;99514.94;5543722;32;34044;-88
2022/09/26 04:43:44;;;;;;;40.83;28.38;;;;;;;11.39;100.00;99528.94;5543845;32;34016;-88
2022/09/26 04:46:47;;;;;;;44.67;29.00;;;;;;;11.36;100.00;99524.69;5543501;32;34900;-88
2022/09/26 04:49:50;;;;;;;39.85;27.65;;;;;;;11.40;100.00;99523.53;5545321;32;34500;-89
2022/09/26 04:52:53;;;;;;;37.10;27.37;;;;;;;11.42;100.00;99507.50;5543106;32;34188;-89
2022/09/26 04:55:56;;;;;;;37.53;27.92;;;;;;;11.41;100.00;99517.28;5542889;32;34096;-89
2022/09/26 04:58:59;;;;;;;33.80;26.05;;;;;;;11.46;100.00;99507.19;5544002;32;34298;-89
2022/09/26 05:02:04;;;;;;;34.35;26.45;;;;;;;11.44;100.00;99509.12;5553846;31;34096;-89
2022/09/26 05:05:09;;;;;;;35.65;26.87;;;;;;;11.50;100.00;99507.84;5555274;32;32704;-89
2022/09/26 05:08:13;;;;;;;36.60;27.73;;;;;;;11.44;100.00;99510.91;5546852;32;34356;-89
2022/09/26 05:11:17;;;;;;;39.70;27.75;;;;;;;11.48;100.00;99508.88;5549547;32;33780;-89
2022/09/26 05:14:20;;;;;;;38.15;27.50;;;;;;;11.51;100.00;99517.50;5545594;32;34093;-89
2022/09/26 05:17:23;;;;;;;35.42;25.88;;;;;;;11.48;100.00;99516.84;5546262;32;34342;-89
2022/09/26 05:20:30;;;;;;;36.97;26.50;;;;;;;11.43;100.00;99507.38;5565480;32;33582;-89
2022/09/26 05:26:55;;;;;;;39.10;27.80;;;;;;;11.52;100.00;99508.56;5546795;32;32496;-89
2022/09/26 05:29:58;;;;;;;39.80;27.25;;;;;;;11.51;100.00;99506.88;5538570;32;34420;-88
2022/09/26 05:33:01;;;;;;;39.15;27.30;;;;;;;11.53;100.00;99497.03;5527497;32;33080;-88
2022/09/26 05:36:04;;;;;;;35.65;27.10;;;;;;;11.54;100.00;99493.41;5515327;32;33448;-88
2022/09/26 05:40:55;;;;;;;37.90;27.55;;;;;;;11.58;100.00;99489.56;5528909;32;33869;-89
2022/09/26 05:42:31;;;;;;;36.70;27.48;;;;;;;11.62;100.00;99489.38;5525260;32;34172;-89
2022/09/26 05:45:33;;;;;;;35.33;27.13;;;;;;;11.65;100.00;99489.13;5525091;32;33783;-90
2022/09/26 05:48:38;;;;;;;37.88;27.87;;;;;;;11.64;100.00;99498.94;5512117;32;33957;-89
2022/09/26 05:51:42;;;;;;;38.88;27.02;;;;;;;11.67;100.00;99503.19;5512381;32;33809;-89
2022/09/26 05:54:46;;;;;;;34.70;26.10;;;;;;;11.65;100.00;99505.09;5516389;32;33394;-89
2022/09/26 05:57:53;;;;;;;34.65;26.45;;;;;;;11.77;100.00;99527.31;5525014;32;34003;-89
2022/09/26 06:01:08;;;;;;;37.97;26.62;;;;;;;11.71;100.00;99517.94;5535815;32;34109;-89
2022/09/26 07:13:35;;;;;;;48.90;29.87;;;;;;;12.19;100.00;99487.25;768980;31;20409;-89
2022/09/26 07:16:38;;;;;;;44.92;28.85;;;;;;;12.25;100.00;99487.69;5414061;32;32817;-90
2022/09/26 07:19:41;;;;;;;45.22;29.30;;;;;;;12.18;100.00;99489.06;5411668;32;34497;-89
2022/09/26 07:22:45;;;;;;;48.60;30.33;;;;;;;12.23;100.00;99500.22;5413224;32;33964;-88
2022/09/26 07:25:49;;;;;;;43.78;28.60;;;;;;;12.32;100.00;99492.56;5415898;32;34067;-89
2022/09/26 08:38:14;;;;;;;22.80;15.88;;;;;;;14.00;100.00;99529.03;1742355;27;20079;-90
2022/09/26 08:41:51;;;;;;;25.05;16.23;;;;;;;14.32;100.00;99531.94;5407977;32;34237;-88
2022/09/26 08:48:49;;;;;;;20.40;15.18;;;;;;;14.20;100.00;99531.94;5407554;32;34081;-89
2022/09/26 08:51:55;;;;;;;16.20;13.35;;;;;;;14.35;100.00;99521.87;5412008;32;33738;-89
2022/09/26 08:55:05;;;;;;;17.73;14.25;;;;;;;14.35;100.00;99523.69;5402970;32;32472;-89
2022/09/26 08:58:17;;;;;;;16.17;13.20;;;;;;;14.35;100.00;99526.34;5415847;32;33838;-89
2022/09/26 09:05:08;;;;;;;14.30;11.65;;;;;;;14.52;100.00;99533.88;5333002;27;20103;-88
2022/09/26 09:08:36;;;;;;;13.70;11.15;;;;;;;14.71;100.00;99531.53;5419900;32;33924;-89
2022/09/26 09:15:47;;;;;;;13.80;11.55;;;;;;;15.16;100.00;99534.13;3948011;27;20087;-89
2022/09/26 09:19:16;;;;;;;12.55;10.80;;;;;;;15.28;100.00;99534.94;5365763;32;33973;-90
2022/09/26 10:05:07;;;;;;;10.68;8.75;;;;;;;15.39;100.00;99520.66;867937;27;20411;-90
2022/09/26 10:08:21;;;;;;;11.80;8.25;;;;;;;16.02;100.00;99522.53;5406329;32;31880;-90
2022/09/26 10:11:40;;;;;;;11.98;8.90;;;;;;;16.08;100.00;99510.44;5408985;33;34196;-90
2022/09/26 10:14:54;;;;;;;10.57;7.75;;;;;;;16.60;100.00;99520.22;5402735;33;33243;-90
2022/09/26 10:18:02;;;;;;;9.45;7.47;;;;;;;17.42;100.00;99505.81;5384406;33;33892;-89
2022/09/26 10:21:32;;;;;;;11.02;7.45;;;;;;;17.88;100.00;99501.50;5390913;33;34116;-90
2022/09/26 10:24:40;;;;;;;9.10;8.20;;;;;;;18.06;100.00;99506.16;5383087;33;32724;-89
2022/09/26 10:27:50;;;;;;;10.15;6.95;;;;;;;18.30;100.00;99511.00;5396835;33;33818;-88
2022/09/26 10:31:09;;;;;;;8.15;6.30;;;;;;;19.42;95.23;99510.03;5399815;33;34633;-87
2022/09/26 10:34:27;;;;;;;8.32;5.95;;;;;;;20.43;85.19;99501.56;5390399;33;34008;-89
2022/09/26 10:37:30;;;;;;;8.15;6.43;;;;;;;20.55;87.22;99494.88;5396031;33;33523;-87
2022/09/26 10:40:45;;;;;;;9.38;6.53;;;;;;;20.44;87.71;99498.72;5407327;32;36105;-86
2022/09/26 10:43:53;;;;;;;6.43;5.60;;;;;;;19.69;91.30;99505.50;5398717;33;33925;-87
2022/09/26 10:47:07;;;;;;;5.28;4.78;;;;;;;18.59;91.67;99501.97;5385328;33;33027;-88
2022/09/26 10:50:16;;;;;;;5.78;4.70;;;;;;;18.83;88.60;99502.38;5396313;33;34545;-88
2022/09/26 10:53:23;;;;;;;4.80;4.32;;;;;;;20.68;85.37;99501.66;5397553;33;34361;-90
2022/09/26 10:56:29;;;;;;;5.03;4.25;;;;;;;21.49;73.62;99495.72;5401004;33;34691;-88
2022/09/26 10:59:38;;;;;;;4.30;4.00;;;;;;;20.63;78.94;99498.59;5411282;32;34489;-89
2022/09/26 11:02:45;;;;;;;7.45;4.20;;;;;;;19.64;84.84;99503.31;5404701;33;34383;-89
2022/09/26 11:05:58;;;;;;;8.65;4.87;;;;;;;18.77;88.62;99514.56;5398162;33;34216;-88
2022/09/26 11:09:03;;;;;;;7.43;5.43;;;;;;;17.44;97.86;99519.94;5403110;32;33807;-89
2022/09/26 11:19:47;;;;;;;5.20;4.60;;;;;;;17.77;100.00;99513.22;2618078;27;20129;-89
2022/09/26 11:52:17;;;;;;;5.40;4.80;;;;;;;17.31;98.29;99504.13;3851319;31;20111;-90
2022/09/26 11:55:36;;;;;;;6.15;5.55;;;;;;;17.28;96.56;99510.63;5417936;27;32911;-89
2022/09/26 11:59:06;;;;;;;8.35;5.25;;;;;;;17.40;100.00;99508.63;5482976;27;34847;-89
2022/09/26 12:02:48;;;;;;;7.20;4.50;;;;;;;17.56;96.76;99512.56;5359479;33;34665;-90
2022/09/26 12:13:35;;;;;;;4.35;3.95;;;;;;;18.70;86.16;99502.72;5403921;27;20087;-88
2022/09/26 12:28:08;;;;;;;4.32;3.92;;;;;;;19.24;79.71;99480.44;3503920;27;20126;-89
2022/09/26 12:31:19;;;;;;;4.47;4.10;;;;;;;18.28;86.71;99471.88;5415004;32;34122;-88
2022/09/26 12:39:00;;;;;;;4.93;4.43;;;;;;;17.97;87.91;99461.38;3937211;30;20134;-89
2022/09/26 12:42:23;;;;;;;5.57;4.50;;;;;;;17.99;88.60;99449.50;5427352;32;34240;-89
2022/09/26 12:45:41;;;;;;;5.03;4.62;;;;;;;17.84;92.45;99451.81;5412168;32;35358;-89
2022/09/26 12:49:16;;;;;;;8.40;4.55;;;;;;;18.18;91.55;99455.81;5420659;32;34601;-91
2022/09/26 12:56:14;;;;;;;5.57;4.30;;;;;;;18.16;87.30;99450.59;5171070;30;20098;-90
2022/09/26 12:59:32;;;;;;;5.20;4.50;;;;;;;17.76;90.29;99438.28;5415009;32;34577;-89
2022/09/26 13:03:12;;;;;;;4.78;4.32;;;;;;;17.40;90.73;99435.41;5418881;27;32392;-89
2022/09/26 13:10:12;;;;;;;6.90;4.75;;;;;;;18.07;90.45;99427.34;2561516;27;20109;-89
2022/09/26 13:13:37;;;;;;;5.45;4.68;;;;;;;18.31;89.47;99437.50;5408641;32;33069;-89
2022/09/26 13:17:04;;;;;;;4.35;3.90;;;;;;;18.09;91.67;99421.81;5433581;32;34676;-89
2022/09/26 13:20:18;;;;;;;5.00;4.50;;;;;;;18.03;84.69;99424.06;5418321;32;34593;-89
2022/09/26 13:23:42;;;;;;;4.22;3.80;;;;;;;18.52;86.27;99436.41;5404119;32;32831;-89
2022/09/26 13:27:03;;;;;;;4.37;3.97;;;;;;;18.74;85.83;99446.88;5417980;32;34314;-89
2022/09/26 13:30:34;;;;;;;9.18;4.20;;;;;;;18.39;84.11;99452.87;5418494;32;33503;-89
2022/09/26 13:33:47;;;;;;;6.75;4.10;;;;;;;18.40;86.27;99443.00;5415589;32;33875;-88
2022/09/26 13:36:50;;;;;;;5.37;4.00;;;;;;;18.13;86.34;99442.84;5403246;32;33445;-87
2022/09/26 13:40:21;;;;;;;4.43;4.00;;;;;;;18.18;86.66;99448.62;5403388;32;32563;-87
2022/09/26 13:43:24;;;;;;;;;;;;;;;18.46;85.39;99442.41;5418239;32;34446;-86
2022/09/26 13:46:41;;;;;;;5.10;4.60;;;;;;;18.63;84.11;99429.97;5416963;32;34435;-87
2022/09/26 13:50:11;;;;;;;5.78;4.20;;;;;;;18.35;84.09;99435.38;5398812;32;32831;-91
2022/09/26 13:53:25;;;;;;;4.90;4.40;;;;;;;18.45;86.49;99441.53;5422261;32;33688;-87
2022/09/26 13:56:40;;;;;;;5.37;4.45;;;;;;;18.37;86.31;99449.50;5403696;32;32453;-87
2022/09/26 13:59:50;;;;;;;5.37;3.78;;;;;;;18.13;83.86;99436.63;5401986;32;33515;-87
2022/09/26 14:03:12;;;;;;;6.10;4.07;;;;;;;18.05;85.92;99437.31;5403423;32;32541;-87
2022/09/26 14:06:27;;;;;;;5.35;4.28;;;;;;;18.04;85.66;99433.81;5409593;32;32813;-87
2022/09/26 14:09:51;;;;;;;4.60;4.20;;;;;;;17.71;86.84;99427.97;5427794;32;34571;-87
2022/09/26 14:13:09;;;;;;;4.40;3.83;;;;;;;17.82;87.94;99413.56;5415361;32;32819;-87
2022/09/26 14:16:27;;;;;;;5.03;4.50;;;;;;;17.95;89.04;99426.62;5418007;32;34814;-88
2022/09/26 14:19:29;;;;;;;4.70;4.20;;;;;;;17.84;89.70;99437.53;5404524;32;33491;-90
2022/09/26 14:22:36;;;;;;;4.32;3.92;;;;;;;17.87;89.74;99421.16;5403723;32;32930;-91
2022/09/26 14:25:45;;;;;;;3.90;3.60;;;;;;;17.94;85.53;99424.13;5404610;32;32880;-88
2022/09/26 14:28:55;;;;;;;4.00;3.70;;;;;;;17.73;85.72;99417.97;5403740;32;32628;-88
2022/09/26 14:32:03;;;;;;;4.35;3.70;;;;;;;17.92;86.98;99409.00;5417208;32;34374;-88
2022/09/26 14:35:24;;;;;;;4.03;3.62;;;;;;;17.62;87.05;99405.59;5403603;32;33553;-89
2022/09/26 14:38:27;;;;;;;4.60;3.65;;;;;;;17.58;85.34;99395.28;5404066;32;33164;-88
2022/09/26 14:41:33;;;;;;;4.10;3.67;;;;;;;17.59;89.37;99402.34;5404458;32;33462;-89
2022/09/26 14:44:37;;;;;;;4.30;3.85;;;;;;;17.56;91.05;99392.78;5416608;32;34498;-87
2022/09/26 14:47:47;;;;;;;7.25;3.90;;;;;;;17.78;89.04;99388.88;5396394;32;34092;-88
2022/09/26 14:51:10;;;;;;;5.20;3.80;;;;;;;17.84;85.66;99384.75;5398737;33;34345;-89
2022/09/26 14:54:22;;;;;;;5.28;4.12;;;;;;;17.66;86.60;99379.34;5398509;33;34820;-87
2022/09/26 14:57:30;;;;;;;4.15;3.75;;;;;;;17.70;88.52;99377.19;5398893;33;34640;-87
2022/09/26 15:00:39;;;;;;;4.30;3.40;;;;;;;17.56;90.39;99383.87;5385245;33;32572;-87
2022/09/26 15:03:50;;;;;;;3.83;3.53;;;;;;;17.52;92.49;99394.06;5398317;33;34283;-87
2022/09/26 15:07:10;;;;;;;4.50;4.10;;;;;;;17.45;92.74;99390.25;5386515;32;33797;-87
2022/09/26 15:10:12;;;;;;;6.03;4.35;;;;;;;17.25;90.60;99387.59;5413283;32;34575;-87
2022/09/26 15:13:40;;;;;;;4.70;4.30;;;;;;;17.21;94.23;99386.22;5411529;32;36040;-91
2022/09/26 15:16:49;;;;;;;4.78;4.00;;;;;;;17.16;95.00;99389.34;5410095;32;33373;-87
2022/09/26 15:19:56;;;;;;;4.60;4.07;;;;;;;17.02;93.38;99379.91;5411848;32;34793;-87
